Twizzle — 2DKS5 — position and weather

sailwx.info

Track history (hours):
 
Tides and Currents Weather Stations Pressure Air Temp Water Temp Dewpoint Dewpoint Depression Visibility Wind Speed Wind Dir Waves Ship Positions

Twizzle

Last reported at 2016-Jul-24 12:31 UTC. Time now 2016-Jul-24 12:52 UTC.
Position N 43°42' E 007°19'.

Length 58 m; draft 3.8 m.

Type: Sailing vessel. MMSI: 235079813.

Date/timePositionNaut miles runAvg speedWind from/ knotsBaromVisibWave heightAir tempDewpointWater temp
2016-Jul-24 12:31N 43°42' E 007°19'0 0.0
2016-Jul-24 11:25N 43°42' E 007°19'0 0.0
2016-Jul-24 10:31N 43°42' E 007°19'0 0.0
2016-Jul-24 09:31N 43°42' E 007°19'0 0.0
2016-Jul-24 08:31N 43°42' E 007°19'0 0.0
2016-Jul-24 07:31N 43°42' E 007°19'0 0.0
2016-Jul-24 06:31N 43°42' E 007°19'0 0.0
2016-Jul-24 05:31N 43°42' E 007°19'0 0.1
2016-Jul-24 04:31N 43°42' E 007°19'0 0.0
2016-Jul-24 03:31N 43°42' E 007°19'0 0.0
2016-Jul-24 02:31N 43°42' E 007°19'0 0.0
2016-Jul-24 01:31N 43°42' E 007°19'0 0.0
2016-Jul-24 00:31N 43°42' E 007°19'0 0.0
2016-Jul-23 23:25N 43°42' E 007°19'0 0.1
2016-Jul-23 22:31N 43°42' E 007°19'0 0.1
2016-Jul-23 21:31N 43°42' E 007°19'0 0.0
2016-Jul-23 20:31N 43°42' E 007°19'0 0.0
2016-Jul-23 19:31N 43°42' E 007°19'0 0.0
2016-Jul-23 18:31N 43°42' E 007°19'0 0.0
2016-Jul-23 17:31N 43°42' E 007°19'0 0.0
2016-Jul-23 16:31N 43°42' E 007°19'0 0.0
2016-Jul-23 15:25N 43°42' E 007°19'0 0.0
2016-Jul-23 14:07N 43°42' E 007°19'0 0.0
2016-Jul-23 13:31N 43°42' E 007°19'0 0.0
2016-Jul-23 12:13N 43°42' E 007°19'0 0.0
2016-Jul-23 11:31N 43°42' E 007°19'0 0.0
2016-Jul-23 10:31N 43°42' E 007°19'0 0.0
2016-Jul-23 09:31N 43°42' E 007°19'3 3.1
2016-Jul-23 08:33N 43°39' E 007°17'6 5.7
2016-Jul-23 07:33N 43°35' E 007°12'4 4.2
2016-Jul-23 06:33N 43°34' E 007°06'0 0.0
2016-Jul-23 04:29N 43°34' E 007°06'0 0.0
2016-Jul-23 03:29N 43°34' E 007°06'0 0.0
2016-Jul-23 02:29N 43°34' E 007°06'0 0.0
2016-Jul-23 01:23N 43°34' E 007°06'0 0.0
2016-Jul-23 00:29N 43°34' E 007°06'0 0.0
2016-Jul-22 23:23N 43°34' E 007°06'0 0.0
2016-Jul-22 22:23N 43°34' E 007°06'0 0.0
2016-Jul-22 21:23N 43°34' E 007°06'0 0.0
2016-Jul-22 20:29N 43°34' E 007°06'0 0.0
2016-Jul-22 19:32N 43°34' E 007°06'0 0.0
2016-Jul-22 18:34N 43°34' E 007°06'9 8.6
2016-Jul-22 17:33N 43°27' E 006°59'1010.1
2016-Jul-22 16:32N 43°21' E 006°47'7 0.6
2016-Jul-22 03:27N 43°16' E 006°39'0 0.0
2016-Jul-22 02:30N 43°16' E 006°39'0 0.0
2016-Jul-22 01:18N 43°16' E 006°39'0 0.0
2016-Jul-22 00:33N 43°16' E 006°39'0 0.0
2016-Jul-21 23:33N 43°16' E 006°40'0 0.0
2016-Jul-21 22:24N 43°16' E 006°39'0 0.0
2016-Jul-21 21:30N 43°16' E 006°39'0 0.0
2016-Jul-21 20:27N 43°16' E 006°39'0 0.0
2016-Jul-21 19:12N 43°16' E 006°39'0 0.0
2016-Jul-21 13:33N 43°16' E 006°39'0 0.0
2016-Jul-21 12:33N 43°16' E 006°39'0 0.0
2016-Jul-21 11:19N 43°16' E 006°39'2 2.2
2016-Jul-21 10:32N 43°17' E 006°37'0 0.0
2016-Jul-21 09:14N 43°17' E 006°37'0 0.0
2016-Jul-21 03:08N 43°17' E 006°37'0 0.0
2016-Jul-21 02:32N 43°17' E 006°37'0 0.0
2016-Jul-21 00:11N 43°17' E 006°37'0 0.0
2016-Jul-20 23:05N 43°17' E 006°37'0 0.0
2016-Jul-20 19:14N 43°17' E 006°37'0 0.0
2016-Jul-20 16:32N 43°17' E 006°37'0 0.0
2016-Jul-20 13:26N 43°17' E 006°37'6 6.4
2016-Jul-20 12:33N 43°12' E 006°42'3 2.8
2016-Jul-20 11:31N 43°11' E 006°39'0 0.0
2016-Jul-20 10:31N 43°11' E 006°39'7 6.9
2016-Jul-20 09:33N 43°17' E 006°43'4 1.8
2016-Jul-20 07:16N 43°17' E 006°37'0 0.0
2016-Jul-20 06:10N 43°17' E 006°37'0 0.0
2016-Jul-20 05:31N 43°17' E 006°37'0 0.0
2016-Jul-20 04:31N 43°17' E 006°37'0 0.0
2016-Jul-20 03:31N 43°17' E 006°37'0 0.0
2016-Jul-20 01:22N 43°17' E 006°37'0 0.0
2016-Jul-20 00:25N 43°17' E 006°37'0 0.0
2016-Jul-19 23:31N 43°17' E 006°37'0 0.0
2016-Jul-19 22:28N 43°17' E 006°37'0 0.0
2016-Jul-19 21:31N 43°17' E 006°37'0 0.1
2016-Jul-19 20:28N 43°17' E 006°37'0 0.0
2016-Jul-19 17:32N 43°17' E 006°37'8 8.5
2016-Jul-19 16:33N 43°21' E 006°47'1111.3
2016-Jul-19 15:33N 43°27' E 006°60'7 7.5
2016-Jul-19 14:33N 43°33' E 007°07'0 0.0
2016-Jul-19 13:33N 43°33' E 007°07'0 0.0
2016-Jul-19 12:33N 43°33' E 007°07'0 0.0
2016-Jul-19 11:33N 43°33' E 007°07'0 0.1
2016-Jul-19 10:34N 43°33' E 007°07'3 2.6
2016-Jul-19 09:32N 43°35' E 007°08'0 0.0
2016-Jul-19 08:32N 43°35' E 007°08'0 0.0
2016-Jul-19 07:32N 43°35' E 007°08'0 0.0
2016-Jul-19 04:32N 43°35' E 007°08'0 0.0
2016-Jul-19 03:32N 43°35' E 007°08'0 0.0
2016-Jul-19 02:32N 43°35' E 007°08'0 0.0
2016-Jul-19 01:32N 43°35' E 007°08'0 0.0
2016-Jul-19 00:32N 43°35' E 007°08'0 0.0
2016-Jul-18 23:32N 43°35' E 007°08'0 0.0
2016-Jul-18 22:32N 43°35' E 007°08'0 0.0
2016-Jul-18 21:32N 43°35' E 007°08'0 0.0
2016-Jul-18 20:26N 43°35' E 007°08'0 0.0
2016-Jul-18 19:32N 43°35' E 007°08'0 0.0
2016-Jul-18 18:32N 43°35' E 007°08'0 0.0
2016-Jul-18 17:32N 43°35' E 007°08'0 0.0
2016-Jul-18 16:32N 43°35' E 007°08'0 0.0
2016-Jul-18 15:26N 43°35' E 007°08'0 0.0
2016-Jul-18 14:32N 43°35' E 007°08'0 0.0
2016-Jul-18 13:32N 43°35' E 007°08'0 0.0
2016-Jul-18 12:32N 43°35' E 007°08'0 0.0
2016-Jul-18 11:32N 43°35' E 007°08'0 0.0
2016-Jul-18 10:32N 43°35' E 007°08'0 0.0
2016-Jul-18 09:32N 43°35' E 007°08'0 0.1
2016-Jul-18 08:33N 43°35' E 007°08'6 6.3
2016-Jul-18 07:33N 43°30' E 007°04'1010.2
2016-Jul-18 06:33N 43°23' E 006°53'13 1.1
2016-Jul-17 18:14N 43°17' E 006°37'0 0.0
2016-Jul-17 17:29N 43°17' E 006°37'0 0.0
2016-Jul-17 16:33N 43°17' E 006°37'5 4.9
2016-Jul-17 15:33N 43°16' E 006°44'6 5.4
2016-Jul-17 14:28N 43°11' E 006°39'0 0.0
2016-Jul-17 13:07N 43°11' E 006°39'0 0.0
2016-Jul-17 12:31N 43°11' E 006°39'2 2.6
2016-Jul-17 11:33N 43°12' E 006°42'6 6.2
2016-Jul-17 10:34N 43°17' E 006°37'0 0.1
2016-Jul-17 09:32N 43°17' E 006°37'0 0.0
2016-Jul-17 08:32N 43°17' E 006°37'0 0.0
2016-Jul-17 06:32N 43°17' E 006°37'0 0.0
2016-Jul-17 04:32N 43°17' E 006°37'0 0.0
2016-Jul-17 03:32N 43°17' E 006°37'0 0.0
2016-Jul-17 02:29N 43°17' E 006°37'0 0.0
2016-Jul-17 01:32N 43°17' E 006°37'0 0.0
2016-Jul-17 00:32N 43°17' E 006°37'0 0.0
2016-Jul-16 23:14N 43°17' E 006°37'0 0.0
2016-Jul-16 22:32N 43°17' E 006°37'0 0.0
2016-Jul-16 21:29N 43°17' E 006°37'0 0.0
2016-Jul-16 20:32N 43°17' E 006°37'0 0.0
2016-Jul-16 19:29N 43°17' E 006°37'1 0.6
2016-Jul-16 18:32N 43°16' E 006°37'0 0.0
2016-Jul-16 17:32N 43°16' E 006°37'2 1.1
2016-Jul-16 15:29N 43°17' E 006°40'4 3.8
2016-Jul-16 14:28N 43°13' E 006°40'0 0.0
2016-Jul-16 13:31N 43°13' E 006°40'0 0.0
2016-Jul-16 12:31N 43°13' E 006°40'0 0.0
2016-Jul-16 11:31N 43°13' E 006°40'1 1.2
2016-Jul-16 10:33N 43°14' E 006°41'1211.8
2016-Jul-16 09:33N 43°19' E 006°56'1212.0
2016-Jul-16 08:33N 43°24' E 007°11'1212.0
2016-Jul-16 07:33N 43°30' E 007°26'10 9.7
2016-Jul-16 06:33N 43°35' E 007°37'20 9.2
2016-Jul-16 04:26N 43°44' E 008°01'8 9.6
2016-Jul-16 03:34N 43°48' E 008°11'9 9.4
2016-Jul-16 02:33N 43°53' E 008°22'9 9.2
2016-Jul-16 01:33N 43°58' E 008°32'9 9.0
2016-Jul-16 00:34N 44°03' E 008°43'9 8.9
2016-Jul-15 23:33N 44°08' E 008°53'9 8.6
2016-Jul-15 22:33N 44°13' E 009°03'8 8.4
2016-Jul-15 21:33N 44°17' E 009°13'1 0.9
2016-Jul-15 20:32N 44°18' E 009°13'0 0.0
2016-Jul-15 19:32N 44°18' E 009°13'0 0.0
2016-Jul-15 18:32N 44°18' E 009°13'0 0.0
2016-Jul-15 17:32N 44°18' E 009°13'0 0.0
2016-Jul-15 16:29N 44°18' E 009°13'0 0.0
2016-Jul-15 15:32N 44°18' E 009°13'0 0.0
2016-Jul-15 14:32N 44°18' E 009°13'0 0.0
2016-Jul-15 13:33N 44°18' E 009°13'7 6.8
2016-Jul-15 12:33N 44°15' E 009°21'9 9.5
2016-Jul-15 11:33N 44°09' E 009°32'9 9.4
2016-Jul-15 10:33N 44°03' E 009°43'7 6.7
2016-Jul-15 09:34N 44°02' E 009°52'1 1.3
2016-Jul-15 08:31N 44°03' E 009°50'0 0.0
2016-Jul-15 07:31N 44°03' E 009°50'0 0.0
2016-Jul-15 06:28N 44°03' E 009°50'0 0.0
2016-Jul-15 05:31N 44°03' E 009°50'0 0.0
2016-Jul-15 04:31N 44°03' E 009°50'0 0.0
2016-Jul-15 03:31N 44°03' E 009°50'0 0.0
2016-Jul-15 02:28N 44°03' E 009°50'0 0.0
2016-Jul-15 01:31N 44°03' E 009°50'0 0.0
2016-Jul-15 00:22N 44°03' E 009°50'0 0.0
2016-Jul-14 23:31N 44°03' E 009°50'0 0.0
2016-Jul-14 22:31N 44°03' E 009°50'0 0.0
2016-Jul-14 21:31N 44°03' E 009°50'0 0.0
2016-Jul-14 20:31N 44°03' E 009°50'0 0.1
2016-Jul-14 19:31N 44°03' E 009°51'0 0.0
2016-Jul-14 18:31N 44°03' E 009°51'0 0.0
2016-Jul-14 17:31N 44°03' E 009°51'1 1.0
2016-Jul-14 16:33N 44°03' E 009°52'10 9.8
2016-Jul-14 15:33N 43°55' E 009°58'1111.0
2016-Jul-14 14:33N 43°44' E 010°03'1111.0
2016-Jul-14 13:33N 43°33' E 010°07'1110.7
2016-Jul-14 12:33N 43°24' E 010°13'  
Track history (hours):
 
Tides and Currents Weather Stations Pressure Air Temp Water Temp Dewpoint Dewpoint Depression Visibility Wind Speed Wind Dir Waves Ship Positions

Twizzle

Last reported at 2016-Jul-24 12:31 UTC. Time now 2016-Jul-24 12:52 UTC.
Position N 43°42' E 007°19'.

Length 58 m; draft 3.8 m.

Type: Sailing vessel. MMSI: 235079813.

Date/timePositionNaut miles runAvg speedWind from/ knotsBaromVisibWave heightAir tempDewpointWater temp
2016-Jul-24 12:31N 43°42' E 007°19'0 0.0
2016-Jul-24 11:25N 43°42' E 007°19'0 0.0
2016-Jul-24 10:31N 43°42' E 007°19'0 0.0
2016-Jul-24 09:31N 43°42' E 007°19'0 0.0
2016-Jul-24 08:31N 43°42' E 007°19'0 0.0
2016-Jul-24 07:31N 43°42' E 007°19'0 0.0
2016-Jul-24 06:31N 43°42' E 007°19'0 0.0
2016-Jul-24 05:31N 43°42' E 007°19'0 0.1
2016-Jul-24 04:31N 43°42' E 007°19'0 0.0
2016-Jul-24 03:31N 43°42' E 007°19'0 0.0
2016-Jul-24 02:31N 43°42' E 007°19'0 0.0
2016-Jul-24 01:31N 43°42' E 007°19'0 0.0
2016-Jul-24 00:31N 43°42' E 007°19'0 0.0
2016-Jul-23 23:25N 43°42' E 007°19'0 0.1
2016-Jul-23 22:31N 43°42' E 007°19'0 0.1
2016-Jul-23 21:31N 43°42' E 007°19'0 0.0
2016-Jul-23 20:31N 43°42' E 007°19'0 0.0
2016-Jul-23 19:31N 43°42' E 007°19'0 0.0
2016-Jul-23 18:31N 43°42' E 007°19'0 0.0
2016-Jul-23 17:31N 43°42' E 007°19'0 0.0
2016-Jul-23 16:31N 43°42' E 007°19'0 0.0
2016-Jul-23 15:25N 43°42' E 007°19'0 0.0
2016-Jul-23 14:07N 43°42' E 007°19'0 0.0
2016-Jul-23 13:31N 43°42' E 007°19'0 0.0
2016-Jul-23 12:13N 43°42' E 007°19'0 0.0
2016-Jul-23 11:31N 43°42' E 007°19'0 0.0
2016-Jul-23 10:31N 43°42' E 007°19'0 0.0
2016-Jul-23 09:31N 43°42' E 007°19'3 3.1
2016-Jul-23 08:33N 43°39' E 007°17'6 5.7
2016-Jul-23 07:33N 43°35' E 007°12'4 4.2
2016-Jul-23 06:33N 43°34' E 007°06'0 0.0
2016-Jul-23 04:29N 43°34' E 007°06'0 0.0
2016-Jul-23 03:29N 43°34' E 007°06'0 0.0
2016-Jul-23 02:29N 43°34' E 007°06'0 0.0
2016-Jul-23 01:23N 43°34' E 007°06'0 0.0
2016-Jul-23 00:29N 43°34' E 007°06'0 0.0
2016-Jul-22 23:23N 43°34' E 007°06'0 0.0
2016-Jul-22 22:23N 43°34' E 007°06'0 0.0
2016-Jul-22 21:23N 43°34' E 007°06'0 0.0
2016-Jul-22 20:29N 43°34' E 007°06'0 0.0
2016-Jul-22 19:32N 43°34' E 007°06'0 0.0
2016-Jul-22 18:34N 43°34' E 007°06'9 8.6
2016-Jul-22 17:33N 43°27' E 006°59'1010.1
2016-Jul-22 16:32N 43°21' E 006°47'7 0.6
2016-Jul-22 03:27N 43°16' E 006°39'0 0.0
2016-Jul-22 02:30N 43°16' E 006°39'0 0.0
2016-Jul-22 01:18N 43°16' E 006°39'0 0.0
2016-Jul-22 00:33N 43°16' E 006°39'0 0.0
2016-Jul-21 23:33N 43°16' E 006°40'0 0.0
2016-Jul-21 22:24N 43°16' E 006°39'0 0.0
2016-Jul-21 21:30N 43°16' E 006°39'0 0.0
2016-Jul-21 20:27N 43°16' E 006°39'0 0.0
2016-Jul-21 19:12N 43°16' E 006°39'0 0.0
2016-Jul-21 13:33N 43°16' E 006°39'0 0.0
2016-Jul-21 12:33N 43°16' E 006°39'0 0.0
2016-Jul-21 11:19N 43°16' E 006°39'2 2.2
2016-Jul-21 10:32N 43°17' E 006°37'0 0.0
2016-Jul-21 09:14N 43°17' E 006°37'0 0.0
2016-Jul-21 03:08N 43°17' E 006°37'0 0.0
2016-Jul-21 02:32N 43°17' E 006°37'0 0.0
2016-Jul-21 00:11N 43°17' E 006°37'0 0.0
2016-Jul-20 23:05N 43°17' E 006°37'0 0.0
2016-Jul-20 19:14N 43°17' E 006°37'0 0.0
2016-Jul-20 16:32N 43°17' E 006°37'0 0.0
2016-Jul-20 13:26N 43°17' E 006°37'6 6.4
2016-Jul-20 12:33N 43°12' E 006°42'3 2.8
2016-Jul-20 11:31N 43°11' E 006°39'0 0.0
2016-Jul-20 10:31N 43°11' E 006°39'7 6.9
2016-Jul-20 09:33N 43°17' E 006°43'4 1.8
2016-Jul-20 07:16N 43°17' E 006°37'0 0.0
2016-Jul-20 06:10N 43°17' E 006°37'0 0.0
2016-Jul-20 05:31N 43°17' E 006°37'0 0.0
2016-Jul-20 04:31N 43°17' E 006°37'0 0.0
2016-Jul-20 03:31N 43°17' E 006°37'0 0.0
2016-Jul-20 01:22N 43°17' E 006°37'0 0.0
2016-Jul-20 00:25N 43°17' E 006°37'0 0.0
2016-Jul-19 23:31N 43°17' E 006°37'0 0.0
2016-Jul-19 22:28N 43°17' E 006°37'0 0.0
2016-Jul-19 21:31N 43°17' E 006°37'0 0.1
2016-Jul-19 20:28N 43°17' E 006°37'0 0.0
2016-Jul-19 17:32N 43°17' E 006°37'8 8.5
2016-Jul-19 16:33N 43°21' E 006°47'1111.3
2016-Jul-19 15:33N 43°27' E 006°60'7 7.5
2016-Jul-19 14:33N 43°33' E 007°07'0 0.0
2016-Jul-19 13:33N 43°33' E 007°07'0 0.0
2016-Jul-19 12:33N 43°33' E 007°07'0 0.0
2016-Jul-19 11:33N 43°33' E 007°07'0 0.1
2016-Jul-19 10:34N 43°33' E 007°07'3 2.6
2016-Jul-19 09:32N 43°35' E 007°08'0 0.0
2016-Jul-19 08:32N 43°35' E 007°08'0 0.0
2016-Jul-19 07:32N 43°35' E 007°08'0 0.0
2016-Jul-19 04:32N 43°35' E 007°08'0 0.0
2016-Jul-19 03:32N 43°35' E 007°08'0 0.0
2016-Jul-19 02:32N 43°35' E 007°08'0 0.0
2016-Jul-19 01:32N 43°35' E 007°08'0 0.0
2016-Jul-19 00:32N 43°35' E 007°08'0 0.0
2016-Jul-18 23:32N 43°35' E 007°08'0 0.0
2016-Jul-18 22:32N 43°35' E 007°08'0 0.0
2016-Jul-18 21:32N 43°35' E 007°08'0 0.0
2016-Jul-18 20:26N 43°35' E 007°08'0 0.0
2016-Jul-18 19:32N 43°35' E 007°08'0 0.0
2016-Jul-18 18:32N 43°35' E 007°08'0 0.0
2016-Jul-18 17:32N 43°35' E 007°08'0 0.0
2016-Jul-18 16:32N 43°35' E 007°08'0 0.0
2016-Jul-18 15:26N 43°35' E 007°08'0 0.0
2016-Jul-18 14:32N 43°35' E 007°08'0 0.0
2016-Jul-18 13:32N 43°35' E 007°08'0 0.0
2016-Jul-18 12:32N 43°35' E 007°08'0 0.0
2016-Jul-18 11:32N 43°35' E 007°08'0 0.0
2016-Jul-18 10:32N 43°35' E 007°08'0 0.0
2016-Jul-18 09:32N 43°35' E 007°08'0 0.1
2016-Jul-18 08:33N 43°35' E 007°08'6 6.3
2016-Jul-18 07:33N 43°30' E 007°04'1010.2
2016-Jul-18 06:33N 43°23' E 006°53'13 1.1
2016-Jul-17 18:14N 43°17' E 006°37'0 0.0
2016-Jul-17 17:29N 43°17' E 006°37'0 0.0
2016-Jul-17 16:33N 43°17' E 006°37'5 4.9
2016-Jul-17 15:33N 43°16' E 006°44'6 5.4
2016-Jul-17 14:28N 43°11' E 006°39'0 0.0
2016-Jul-17 13:07N 43°11' E 006°39'0 0.0
2016-Jul-17 12:31N 43°11' E 006°39'2 2.6
2016-Jul-17 11:33N 43°12' E 006°42'6 6.2
2016-Jul-17 10:34N 43°17' E 006°37'0 0.1
2016-Jul-17 09:32N 43°17' E 006°37'0 0.0
2016-Jul-17 08:32N 43°17' E 006°37'0 0.0
2016-Jul-17 06:32N 43°17' E 006°37'0 0.0
2016-Jul-17 04:32N 43°17' E 006°37'0 0.0
2016-Jul-17 03:32N 43°17' E 006°37'0 0.0
2016-Jul-17 02:29N 43°17' E 006°37'0 0.0
2016-Jul-17 01:32N 43°17' E 006°37'0 0.0
2016-Jul-17 00:32N 43°17' E 006°37'0 0.0
2016-Jul-16 23:14N 43°17' E 006°37'0 0.0
2016-Jul-16 22:32N 43°17' E 006°37'0 0.0
2016-Jul-16 21:29N 43°17' E 006°37'0 0.0
2016-Jul-16 20:32N 43°17' E 006°37'0 0.0
2016-Jul-16 19:29N 43°17' E 006°37'1 0.6
2016-Jul-16 18:32N 43°16' E 006°37'0 0.0
2016-Jul-16 17:32N 43°16' E 006°37'2 1.1
2016-Jul-16 15:29N 43°17' E 006°40'4 3.8
2016-Jul-16 14:28N 43°13' E 006°40'0 0.0
2016-Jul-16 13:31N 43°13' E 006°40'0 0.0
2016-Jul-16 12:31N 43°13' E 006°40'0 0.0
2016-Jul-16 11:31N 43°13' E 006°40'1 1.2
2016-Jul-16 10:33N 43°14' E 006°41'1211.8
2016-Jul-16 09:33N 43°19' E 006°56'1212.0
2016-Jul-16 08:33N 43°24' E 007°11'1212.0
2016-Jul-16 07:33N 43°30' E 007°26'10 9.7
2016-Jul-16 06:33N 43°35' E 007°37'20 9.2
2016-Jul-16 04:26N 43°44' E 008°01'8 9.6
2016-Jul-16 03:34N 43°48' E 008°11'9 9.4
2016-Jul-16 02:33N 43°53' E 008°22'9 9.2
2016-Jul-16 01:33N 43°58' E 008°32'9 9.0
2016-Jul-16 00:34N 44°03' E 008°43'9 8.9
2016-Jul-15 23:33N 44°08' E 008°53'9 8.6
2016-Jul-15 22:33N 44°13' E 009°03'8 8.4
2016-Jul-15 21:33N 44°17' E 009°13'1 0.9
2016-Jul-15 20:32N 44°18' E 009°13'0 0.0
2016-Jul-15 19:32N 44°18' E 009°13'0 0.0
2016-Jul-15 18:32N 44°18' E 009°13'0 0.0
2016-Jul-15 17:32N 44°18' E 009°13'0 0.0
2016-Jul-15 16:29N 44°18' E 009°13'0 0.0
2016-Jul-15 15:32N 44°18' E 009°13'0 0.0
2016-Jul-15 14:32N 44°18' E 009°13'0 0.0
2016-Jul-15 13:33N 44°18' E 009°13'7 6.8
2016-Jul-15 12:33N 44°15' E 009°21'9 9.5
2016-Jul-15 11:33N 44°09' E 009°32'9 9.4
2016-Jul-15 10:33N 44°03' E 009°43'7 6.7
2016-Jul-15 09:34N 44°02' E 009°52'1 1.3
2016-Jul-15 08:31N 44°03' E 009°50'0 0.0
2016-Jul-15 07:31N 44°03' E 009°50'0 0.0
2016-Jul-15 06:28N 44°03' E 009°50'0 0.0
2016-Jul-15 05:31N 44°03' E 009°50'0 0.0
2016-Jul-15 04:31N 44°03' E 009°50'0 0.0
2016-Jul-15 03:31N 44°03' E 009°50'0 0.0
2016-Jul-15 02:28N 44°03' E 009°50'0 0.0
2016-Jul-15 01:31N 44°03' E 009°50'0 0.0
2016-Jul-15 00:22N 44°03' E 009°50'0 0.0
2016-Jul-14 23:31N 44°03' E 009°50'0 0.0
2016-Jul-14 22:31N 44°03' E 009°50'0 0.0
2016-Jul-14 21:31N 44°03' E 009°50'0 0.0
2016-Jul-14 20:31N 44°03' E 009°50'0 0.1
2016-Jul-14 19:31N 44°03' E 009°51'0 0.0
2016-Jul-14 18:31N 44°03' E 009°51'0 0.0
2016-Jul-14 17:31N 44°03' E 009°51'1 1.0
2016-Jul-14 16:33N 44°03' E 009°52'10 9.8
2016-Jul-14 15:33N 43°55' E 009°58'1111.0
2016-Jul-14 14:33N 43°44' E 010°03'1111.0
2016-Jul-14 13:33N 43°33' E 010°07'1110.7
2016-Jul-14 12:33N 43°24' E 010°13'  

Dump ship's entire track history